Time;durP1;ratioP1;P1;durP2;ratioP2;P2;SDS_P1;SDS_P2;PMS_P1;PMS_P2;Temp;Humidity;BMP_temperature;BMP_pressure;BME280_temperature;BME280_humidity;BME280_pressure;Samples;Min_cycle;Max_cycle;Signal;HPM_P1;HPM_P2
2022/09/14 00:01:18;;;;;;;4.10;3.70;;;;;;;16.04;94.27;99621.95;1769380;80;26087;-76
2022/09/14 00:03:45;;;;;;;4.87;3.58;;;;;;;16.03;94.29;99618.98;1776634;79;25819;-75
2022/09/14 00:06:14;;;;;;;5.33;4.50;;;;;;;16.02;94.31;99608.40;1779910;79;25783;-76
2022/09/14 00:08:42;;;;;;;4.47;4.08;;;;;;;15.99;94.38;99612.44;1764925;80;27418;-76
2022/09/14 00:11:12;;;;;;;5.12;4.65;;;;;;;15.99;94.44;99612.44;1759145;81;26435;-75
2022/09/14 00:13:42;;;;;;;7.70;6.90;;;;;;;15.98;94.54;99614.01;1754557;81;25845;-76
2022/09/14 00:16:13;;;;;;;6.30;5.33;;;;;;;15.95;94.64;99608.56;1757661;81;26549;-75
2022/09/14 00:18:40;;;;;;;;;;;;;;;15.89;94.76;99601.97;1756068;81;25280;-76
2022/09/14 00:21:09;;;;;;;5.80;5.30;;;;;;;15.86;95.02;99600.61;1758122;81;28514;-75
2022/09/14 00:23:38;;;;;;;8.10;6.17;;;;;;;15.81;95.21;99603.73;1750668;81;26368;-75
2022/09/14 00:26:12;;;;;;;6.53;5.80;;;;;;;15.78;95.37;99601.54;1745245;81;25748;-76
2022/09/14 00:28:42;;;;;;;6.08;5.55;;;;;;;15.78;95.60;99606.39;1756424;81;25809;-76
2022/09/14 00:31:10;;;;;;;10.65;7.60;;;;;;;15.80;95.81;99598.06;1748508;81;26000;-75
2022/09/14 00:33:37;;;;;;;9.35;8.43;;;;;;;15.81;95.95;99592.41;1754143;81;27458;-76
2022/09/14 00:36:09;;;;;;;8.50;7.58;;;;;;;15.83;96.13;99592.98;1763977;80;26407;-76
2022/09/14 00:38:37;;;;;;;7.72;6.92;;;;;;;15.85;96.23;99594.08;1753743;80;25907;-75
2022/09/14 00:41:07;;;;;;;8.25;7.45;;;;;;;15.86;96.24;99591.67;1761255;80;26433;-75
2022/09/14 00:43:53;;;;;;;8.97;8.07;;;;;;;15.89;96.57;99577.66;1773722;80;25909;-75
2022/09/14 00:46:19;;;;;;;9.95;8.90;;;;;;;15.89;96.57;99577.66;1749260;81;27651;-77
2022/09/14 00:48:46;;;;;;;32.38;25.92;;;;;;;15.91;96.34;99583.11;1777422;80;26485;-77
2022/09/14 00:51:16;;;;;;;16.12;14.43;;;;;;;15.93;96.30;99586.38;1742858;81;26429;-77
2022/09/14 00:53:42;;;;;;;12.00;10.78;;;;;;;15.93;96.31;99590.44;1773637;80;26162;-78
2022/09/14 00:56:09;;;;;;;10.58;9.55;;;;;;;15.95;96.35;99591.56;1748440;81;25936;-77
2022/09/14 00:58:35;;;;;;;11.22;10.13;;;;;;;15.94;96.38;99586.69;1780365;79;27452;-77
2022/09/14 01:01:02;;;;;;;11.22;8.13;;;;;;;15.96;96.32;99589.95;1778055;79;25937;-77
2022/09/14 01:03:28;;;;;;;8.43;7.55;;;;;;;15.99;96.26;99584.59;1772476;80;25864;-77
2022/09/14 01:06:21;;;;;;;8.78;7.90;;;;;;;16.01;96.14;99592.75;1768877;80;25929;-78
2022/09/14 01:09:16;;;;;;;8.65;7.50;;;;;;;16.03;96.15;99593.84;1761026;80;25745;-76
2022/09/14 01:12:16;;;;;;;8.05;7.25;;;;;;;16.03;96.24;99589.27;1768064;80;28292;-77
2022/09/14 01:15:09;;;;;;;8.87;7.43;;;;;;;16.04;96.22;99591.41;1750304;81;25808;-77
2022/09/14 01:17:43;;;;;;;7.35;6.65;;;;;;;16.04;96.33;99596.81;1749097;81;25851;-77
2022/09/14 01:20:21;;;;;;;8.30;7.37;;;;;;;16.04;96.40;99592.77;1744219;81;25901;-76
2022/09/14 01:22:59;;;;;;;9.05;8.08;;;;;;;16.00;96.57;99596.50;1753987;81;26122;-76
2022/09/14 01:26:02;;;;;;;10.88;9.43;;;;;;;15.96;96.75;99599.94;1779133;80;27449;-76
2022/09/14 01:28:43;;;;;;;12.70;11.10;;;;;;;15.92;96.98;99591.52;1769797;80;26469;-77
2022/09/14 01:31:30;;;;;;;15.78;11.73;;;;;;;15.87;97.18;99577.09;1765617;80;25295;-76
2022/09/14 01:34:13;;;;;;;16.67;13.75;;;;;;;15.85;97.29;99579.22;1775044;80;26389;-76
2022/09/14 01:36:45;;;;;;;18.07;14.23;;;;;;;15.84;97.38;99581.13;1770807;80;25815;-76
2022/09/14 01:39:14;;;;;;;18.45;15.55;;;;;;;15.82;97.34;99579.20;1772866;80;27517;-76
2022/09/14 01:41:41;;;;;;;20.90;16.27;;;;;;;15.78;97.33;99569.94;1767766;80;25830;-76
2022/09/14 01:44:28;;;;;;;18.12;15.63;;;;;;;15.78;97.34;99579.38;1783859;80;25799;-76
2022/09/14 01:47:00;;;;;;;21.17;17.20;;;;;;;15.80;97.37;99579.16;1773509;80;25940;-77
2022/09/14 01:49:34;;;;;;;20.15;17.90;;;;;;;15.81;97.53;99582.13;1755756;80;26383;-76
2022/09/14 01:52:06;;;;;;;22.60;17.62;;;;;;;15.78;97.61;99575.33;1755780;80;27459;-77
2022/09/14 01:54:38;;;;;;;22.60;18.48;;;;;;;15.78;97.65;99575.89;1765378;80;25768;-76
2022/09/14 01:57:33;;;;;;;21.70;18.12;;;;;;;15.75;97.63;99572.31;1780957;80;25797;-76
2022/09/14 02:00:08;;;;;;;21.15;17.00;;;;;;;15.75;97.64;99569.61;1772725;80;25789;-76
2022/09/14 02:02:43;;;;;;;20.95;17.67;;;;;;;15.75;97.58;99565.56;1767921;80;25905;-77
2022/09/14 02:05:18;;;;;;;22.27;18.48;;;;;;;15.76;97.37;99556.41;1766955;79;27555;-75
2022/09/14 02:07:45;;;;;;;23.60;19.12;;;;;;;15.77;97.34;99559.39;1777592;80;25806;-76
2022/09/14 02:10:14;;;;;;;23.18;17.70;;;;;;;15.78;97.37;99561.83;1777668;80;25637;-76
2022/09/14 02:12:41;;;;;;;24.52;19.87;;;;;;;15.78;97.33;99558.34;1781470;80;25911;-76
2022/09/14 02:15:10;;;;;;;29.23;20.97;;;;;;;15.77;97.33;99559.39;1752317;80;25835;-76
2022/09/14 02:17:38;;;;;;;24.92;20.70;;;;;;;15.77;97.46;99558.03;1747562;81;27616;-75
2022/09/14 02:20:09;;;;;;;26.95;21.97;;;;;;;15.76;97.62;99564.52;1769090;80;25746;-76
2022/09/14 02:22:36;;;;;;;26.73;21.30;;;;;;;15.76;97.62;99570.71;1762721;80;25633;-76
2022/09/14 02:25:03;;;;;;;28.12;22.90;;;;;;;15.75;97.76;99561.52;1733384;81;25758;-76
2022/09/14 02:27:29;;;;;;;31.12;22.93;;;;;;;15.74;97.92;99563.39;1747328;81;25741;-76
2022/09/14 02:29:57;;;;;;;30.70;23.07;;;;;;;15.75;97.94;99561.52;1741112;81;28266;-76
2022/09/14 02:32:56;;;;;;;30.90;23.50;;;;;;;15.76;98.02;99560.47;1752164;81;25933;-76
2022/09/14 02:35:42;;;;;;;29.60;23.15;;;;;;;15.76;98.06;99563.17;1771583;80;25750;-76
2022/09/14 02:38:43;;;;;;;29.50;23.15;;;;;;;15.75;98.19;99558.29;1734376;81;25822;-76
2022/09/14 02:41:36;;;;;;;32.17;23.83;;;;;;;15.72;98.29;99556.59;1749127;81;26482;-76
2022/09/14 02:44:17;;;;;;;35.95;24.90;;;;;;;15.72;98.47;99559.29;1774576;80;27543;-76
2022/09/14 02:46:56;;;;;;;;;;;;;;;15.71;98.60;99556.32;1772802;80;25875;-76
2022/09/14 02:49:49;;;;;;;30.52;22.40;;;;;;;15.69;98.70;99549.83;1733945;81;25808;-76
2022/09/14 02:52:24;;;;;;;32.17;23.22;;;;;;;15.66;98.80;99553.53;1764428;80;25751;-75
2022/09/14 02:55:07;;;;;;;31.45;23.40;;;;;;;15.67;98.83;99556.00;1766768;80;25721;-76
2022/09/14 02:58:03;;;;;;;28.25;23.75;;;;;;;15.70;98.84;99557.38;1738959;81;27473;-76
2022/09/14 03:00:33;;;;;;;38.75;24.47;;;;;;;15.72;98.79;99549.84;1710687;82;25883;-75
2022/09/14 03:03:00;;;;;;;30.35;24.07;;;;;;;15.73;98.83;99554.19;1742540;81;25808;-76
2022/09/14 03:05:26;;;;;;;30.15;23.32;;;;;;;15.74;98.84;99552.59;1729267;81;25770;-76
2022/09/14 03:07:53;;;;;;;30.05;23.15;;;;;;;15.73;98.87;99542.87;1754818;81;25922;-75
2022/09/14 03:10:19;;;;;;;30.00;23.05;;;;;;;15.72;98.81;99530.42;1755811;81;27978;-76
2022/09/14 03:12:46;;;;;;;30.27;24.67;;;;;;;15.74;98.79;99526.14;1772140;80;25772;-76
2022/09/14 03:15:12;;;;;;;27.85;22.35;;;;;;;15.75;98.85;99544.79;1738837;81;26020;-77
2022/09/14 03:17:38;;;;;;;31.27;23.75;;;;;;;15.75;98.79;99538.04;1748203;81;25773;-76
2022/09/14 03:20:05;;;;;;;29.32;22.90;;;;;;;15.79;98.76;99542.41;1766786;80;26582;-76
2022/09/14 03:22:32;;;;;;;32.85;24.02;;;;;;;15.79;98.68;99536.48;1766396;80;27466;-76
2022/09/14 03:24:58;;;;;;;32.20;24.60;;;;;;;15.80;98.61;99546.20;1740527;81;26370;-75
2022/09/14 03:27:25;;;;;;;33.15;24.82;;;;;;;15.79;98.64;99547.81;1767942;80;25826;-75
2022/09/14 03:29:51;;;;;;;32.10;24.15;;;;;;;15.78;98.66;99541.58;1776014;80;25908;-76
2022/09/14 03:32:17;;;;;;;28.73;22.22;;;;;;;15.80;98.72;99544.85;1780797;80;25739;-76
2022/09/14 03:34:44;;;;;;;32.70;23.45;;;;;;;15.79;98.76;99539.18;1776424;80;28419;-76
2022/09/14 03:37:10;;;;;;;30.80;24.12;;;;;;;15.79;98.80;99542.41;1774261;80;25887;-75
2022/09/14 03:39:38;;;;;;;30.65;22.00;;;;;;;15.76;98.84;99537.52;1775268;80;25810;-76
2022/09/14 03:42:05;;;;;;;28.30;22.40;;;;;;;15.76;98.86;99541.56;1783957;80;26640;-76
2022/09/14 03:44:31;;;;;;;30.65;22.32;;;;;;;15.75;98.88;99531.29;1777508;80;25889;-76
2022/09/14 03:46:57;;;;;;;30.43;22.22;;;;;;;15.75;98.86;99536.69;1770607;80;27440;-75
2022/09/14 03:49:24;;;;;;;23.57;20.90;;;;;;;15.77;98.84;99526.98;1764897;80;25933;-76
2022/09/14 03:51:50;;;;;;;27.25;21.62;;;;;;;15.78;98.77;99527.28;1770657;80;25858;-76
2022/09/14 03:54:16;;;;;;;32.55;23.22;;;;;;;15.78;98.66;99529.42;1768726;79;25837;-76
2022/09/14 03:56:43;;;;;;;25.72;21.87;;;;;;;15.80;98.60;99517.84;1762873;79;26465;-76
2022/09/14 03:59:09;;;;;;;26.85;20.27;;;;;;;15.80;98.44;99524.59;1741800;80;27542;-76
2022/09/14 04:01:37;;;;;;;26.20;21.80;;;;;;;15.80;98.36;99515.15;1762830;80;25751;-76
2022/09/14 04:04:03;;;;;;;26.37;21.12;;;;;;;15.81;98.21;99517.33;1731918;80;25772;-76
2022/09/14 04:06:31;;;;;;;23.85;20.27;;;;;;;15.81;98.04;99515.45;1750546;81;26510;-75
2022/09/14 04:08:58;;;;;;;25.37;20.72;;;;;;;15.82;97.82;99507.65;1778437;79;25774;-75
2022/09/14 04:11:25;;;;;;;26.37;20.85;;;;;;;15.81;97.59;99508.70;1774597;80;27472;-76
2022/09/14 04:13:52;;;;;;;25.20;19.77;;;;;;;15.82;97.36;99517.62;1768458;79;26115;-75
2022/09/14 04:16:20;;;;;;;25.25;21.62;;;;;;;15.81;97.25;99505.17;1774642;79;25801;-75
2022/09/14 04:18:47;;;;;;;30.52;20.82;;;;;;;15.81;97.27;99514.09;1779287;80;27005;-76
2022/09/14 04:21:19;;;;;;;22.40;18.52;;;;;;;15.79;97.30;99502.73;1779807;80;25681;-76
2022/09/14 04:23:47;;;;;;;25.27;21.07;;;;;;;15.80;97.33;99508.40;1774559;80;27502;-75
2022/09/14 04:26:17;;;;;;;25.62;20.55;;;;;;;15.81;97.37;99506.00;1766275;80;25806;-75
2022/09/14 04:28:44;;;;;;;25.43;20.23;;;;;;;15.81;97.48;99508.70;1770511;80;26350;-75
2022/09/14 04:31:12;;;;;;;26.77;21.45;;;;;;;15.81;97.59;99510.05;1773336;80;26465;-76
2022/09/14 04:33:44;;;;;;;27.35;21.68;;;;;;;15.81;97.76;99507.88;1765667;79;25761;-76
2022/09/14 04:36:15;;;;;;;27.35;22.62;;;;;;;15.81;97.89;99503.83;1761909;80;28710;-76
2022/09/14 04:38:42;;;;;;;25.23;21.27;;;;;;;15.82;97.94;99505.47;1767225;79;25787;-76
2022/09/14 04:41:19;;;;;;;30.10;24.05;;;;;;;15.83;97.97;99511.14;1768881;80;25656;-75
2022/09/14 04:43:49;;;;;;;28.60;23.18;;;;;;;15.82;98.03;99504.95;1759949;80;25779;-76
2022/09/14 04:46:19;;;;;;;26.80;22.17;;;;;;;15.85;98.01;99509.02;1775107;79;26327;-76
2022/09/14 04:48:47;;;;;;;27.48;22.20;;;;;;;15.85;98.07;99504.96;1764092;80;27447;-76
2022/09/14 04:51:17;;;;;;;33.83;22.67;;;;;;;15.85;98.13;99509.84;1767461;80;25827;-76
2022/09/14 04:53:46;;;;;;;27.70;22.37;;;;;;;15.86;98.24;99516.06;1777061;80;25763;-76
2022/09/14 04:56:14;;;;;;;26.35;22.50;;;;;;;15.85;98.32;99524.69;1751273;80;25815;-76
2022/09/14 04:58:46;;;;;;;30.72;23.95;;;;;;;15.85;98.42;99525.22;1754434;79;25785;-75
2022/09/14 05:01:20;;;;;;;28.10;22.70;;;;;;;15.83;98.60;99524.64;1752510;80;27433;-76
2022/09/14 05:03:47;;;;;;;30.90;23.45;;;;;;;15.84;98.71;99521.72;1751619;79;26409;-76
2022/09/14 05:06:26;;;;;;;31.75;24.52;;;;;;;15.84;98.79;99521.72;1757357;80;25884;-76
2022/09/14 05:08:54;;;;;;;34.75;25.57;;;;;;;15.84;98.89;99524.42;1761673;79;26533;-76
2022/09/14 05:11:24;;;;;;;38.42;26.77;;;;;;;15.83;98.98;99524.12;1781291;80;25941;-76
2022/09/14 05:13:51;;;;;;;36.73;27.42;;;;;;;15.80;99.11;99522.45;1764249;80;27610;-76
2022/09/14 05:16:21;;;;;;;36.77;27.42;;;;;;;15.79;99.21;99524.33;1760895;80;25811;-77
2022/09/14 05:18:49;;;;;;;41.08;28.70;;;;;;;15.76;99.22;99522.11;1760421;79;25864;-77
2022/09/14 05:21:18;;;;;;;42.05;27.67;;;;;;;15.76;99.32;99520.76;1755427;80;25752;-77
2022/09/14 05:23:45;;;;;;;39.10;28.77;;;;;;;15.76;99.43;99527.51;1763391;79;25757;-77
2022/09/14 05:26:13;;;;;;;35.92;27.20;;;;;;;15.77;99.51;99522.41;1742021;80;27431;-77
2022/09/14 05:28:40;;;;;;;42.58;29.80;;;;;;;15.77;99.49;99523.76;1763887;79;25765;-76
2022/09/14 05:31:11;;;;;;;39.05;28.32;;;;;;;15.79;99.54;99521.63;1743960;80;26172;-77
2022/09/14 05:33:38;;;;;;;41.30;29.75;;;;;;;15.78;99.53;99527.28;1743047;81;25995;-77
2022/09/14 05:36:07;;;;;;;43.28;35.28;;;;;;;15.77;99.58;99530.51;1741045;81;25742;-77
2022/09/14 05:38:36;;;;;;;41.55;31.60;;;;;;;15.76;99.49;99527.51;1739734;82;28362;-77
2022/09/14 05:41:04;;;;;;;36.68;32.05;;;;;;;15.75;99.32;99529.11;1767395;80;25801;-77
2022/09/14 05:43:31;;;;;;;35.17;29.12;;;;;;;15.74;99.46;99529.64;1782208;80;25253;-77
2022/09/14 05:46:05;;;;;;;34.30;27.27;;;;;;;15.77;99.63;99529.69;1776262;80;26502;-77
2022/09/14 05:48:33;;;;;;;38.17;27.77;;;;;;;15.76;99.54;99528.86;1778250;80;26196;-77
2022/09/14 05:51:07;;;;;;;35.28;28.83;;;;;;;15.78;99.63;99529.98;1780962;80;28648;-77
2022/09/14 05:53:33;;;;;;;34.40;27.98;;;;;;;15.79;99.70;99529.73;1749847;81;26427;-76
2022/09/14 05:56:12;;;;;;;38.48;29.45;;;;;;;15.82;99.66;99529.77;1781709;80;25299;-76
2022/09/14 05:58:41;;;;;;;43.68;27.75;;;;;;;15.80;99.58;99533.26;1779793;80;26476;-77
2022/09/14 06:01:18;;;;;;;43.25;31.87;;;;;;;15.81;99.75;99532.17;1776708;80;25808;-76
2022/09/14 06:03:46;;;;;;;38.15;29.75;;;;;;;15.83;99.88;99539.50;1771661;80;27467;-76
2022/09/14 06:06:16;;;;;;;39.55;29.60;;;;;;;15.84;99.94;99529.00;1775374;80;25798;-76
2022/09/14 06:08:43;;;;;;;35.55;26.10;;;;;;;15.85;99.84;99534.14;1773982;80;25807;-76
2022/09/14 06:11:14;;;;;;;37.40;28.65;;;;;;;15.84;99.87;99533.88;1773066;80;25854;-75
2022/09/14 06:13:42;;;;;;;36.53;28.42;;;;;;;15.86;99.84;99543.89;1776256;80;25771;-76
2022/09/14 06:16:12;;;;;;;36.98;27.37;;;;;;;15.83;99.75;99538.97;1771080;80;27506;-76
2022/09/14 06:18:40;;;;;;;40.30;27.98;;;;;;;15.83;99.92;99540.84;1771221;80;25926;-76
2022/09/14 06:21:09;;;;;;;34.00;27.32;;;;;;;15.83;100.00;99540.32;1776570;80;25978;-76
2022/09/14 06:23:36;;;;;;;36.77;29.40;;;;;;;15.83;99.92;99536.27;1771656;80;25810;-74
2022/09/14 06:26:04;;;;;;;37.28;27.98;;;;;;;15.83;99.94;99537.63;1773581;80;25711;-75
2022/09/14 06:28:34;;;;;;;41.13;29.20;;;;;;;15.85;100.00;99547.64;1776704;80;27194;-75
2022/09/14 06:31:03;;;;;;;36.68;27.90;;;;;;;15.90;100.00;99548.26;1771482;80;25761;-76
2022/09/14 06:33:30;;;;;;;38.55;28.25;;;;;;;15.94;100.00;99551.58;1758953;80;25647;-75
2022/09/14 06:36:08;;;;;;;33.98;26.15;;;;;;;15.98;100.00;99555.94;1770674;80;26188;-75
2022/09/14 06:38:33;;;;;;;34.03;25.85;;;;;;;16.01;100.00;99556.28;1771524;80;26665;-75
2022/09/14 06:41:03;;;;;;;32.42;25.17;;;;;;;16.00;99.90;99562.73;1766194;80;27452;-75
2022/09/14 06:43:33;;;;;;;32.05;23.55;;;;;;;16.02;99.88;99561.95;1770922;80;25911;-76
2022/09/14 06:46:17;;;;;;;27.75;22.10;;;;;;;16.07;100.00;99559.87;1767869;80;25792;-75
2022/09/14 06:48:49;;;;;;;26.33;20.37;;;;;;;16.09;99.92;99562.61;1764310;80;26867;-75
2022/09/14 06:51:19;;;;;;;27.10;19.92;;;;;;;16.13;99.63;99558.34;1764154;80;25743;-76
2022/09/14 06:53:47;;;;;;;27.35;19.82;;;;;;;16.19;99.62;99560.05;1751400;81;27635;-76
2022/09/14 06:56:14;;;;;;;26.77;18.92;;;;;;;16.21;98.77;99559.80;1745088;80;25745;-75
2022/09/14 06:58:42;;;;;;;23.18;17.55;;;;;;;16.23;98.48;99554.95;1716948;81;26026;-75
2022/09/14 07:01:15;;;;;;;22.95;17.20;;;;;;;16.26;97.79;99563.93;1754571;81;25889;-75
2022/09/14 07:03:43;;;;;;;24.95;16.52;;;;;;;16.29;97.84;99568.85;1736650;81;25845;-75
2022/09/14 07:06:14;;;;;;;21.40;15.43;;;;;;;16.32;97.87;99575.62;1757957;80;27490;-75
2022/09/14 07:08:43;;;;;;;19.57;14.38;;;;;;;16.33;97.35;99585.38;1776214;80;25667;-75
2022/09/14 07:11:12;;;;;;;22.45;14.98;;;;;;;16.29;96.80;99585.06;1780242;80;25800;-76
2022/09/14 07:13:40;;;;;;;23.32;15.32;;;;;;;16.29;96.70;99581.02;1769745;80;25774;-75
2022/09/14 07:16:07;;;;;;;19.55;15.85;;;;;;;16.30;96.15;99588.03;1735069;80;25816;-75
2022/09/14 07:18:35;;;;;;;21.60;15.75;;;;;;;16.28;95.83;99578.01;1739464;80;27479;-75
2022/09/14 07:21:15;;;;;;;21.55;13.95;;;;;;;16.31;96.29;99576.70;1772717;79;25838;-75
2022/09/14 07:23:43;;;;;;;23.40;13.65;;;;;;;16.40;96.65;99579.27;1743608;79;25814;-75
2022/09/14 07:26:14;;;;;;;20.97;14.30;;;;;;;16.48;96.64;99576.13;1733795;80;26763;-76
2022/09/14 07:28:43;;;;;;;20.45;14.23;;;;;;;16.51;96.25;99572.41;1778140;80;26117;-76
2022/09/14 07:31:21;;;;;;;18.67;13.60;;;;;;;16.55;95.67;99568.70;1732516;81;27460;-75
2022/09/14 07:33:53;;;;;;;21.70;14.73;;;;;;;16.59;95.79;99574.71;1743342;81;25915;-77
2022/09/14 07:36:21;;;;;;;20.90;14.20;;;;;;;16.67;95.78;99576.97;1769722;80;26151;-77
2022/09/14 07:38:48;;;;;;;23.05;14.45;;;;;;;16.71;95.61;99579.98;1767844;80;25745;-77
2022/09/14 07:41:14;;;;;;;21.25;13.35;;;;;;;16.81;96.15;99571.46;1745781;81;26094;-76
2022/09/14 07:43:41;;;;;;;17.65;14.05;;;;;;;16.91;96.06;99570.78;1737885;81;28352;-76
2022/09/14 07:46:08;;;;;;;23.77;14.93;;;;;;;17.01;95.72;99572.24;1750092;81;25968;-76
2022/09/14 07:48:35;;;;;;;20.30;14.38;;;;;;;17.04;94.73;99568.22;1747182;81;25927;-77
2022/09/14 07:51:04;;;;;;;17.62;12.95;;;;;;;17.03;94.39;99569.27;1730972;81;25770;-76
2022/09/14 07:53:31;;;;;;;31.05;15.65;;;;;;;17.02;94.51;99563.07;1725971;81;25874;-76
2022/09/14 07:56:00;;;;;;;19.17;12.73;;;;;;;17.04;94.45;99566.86;1721506;81;27472;-77
2022/09/14 07:58:30;;;;;;;18.55;13.13;;;;;;;17.06;94.13;99568.25;1760445;80;25776;-76
2022/09/14 08:01:13;;;;;;;17.05;12.30;;;;;;;17.09;94.06;99575.84;1759118;80;25808;-76
2022/09/14 08:03:47;;;;;;;14.35;11.73;;;;;;;17.06;93.37;99577.72;1764593;80;25760;-76
2022/09/14 08:06:18;;;;;;;17.87;12.17;;;;;;;17.07;93.67;99575.81;1765666;79;25842;-76
2022/09/14 08:08:48;;;;;;;20.02;12.18;;;;;;;17.07;93.18;99571.22;1739816;80;27514;-76
2022/09/14 08:11:23;;;;;;;16.57;11.78;;;;;;;17.07;93.22;99565.81;1735161;80;25958;-76
2022/09/14 08:13:59;;;;;;;19.30;13.22;;;;;;;17.15;93.27;99567.27;1729530;82;25801;-79
2022/09/14 08:16:28;;;;;;;19.12;12.35;;;;;;;17.20;93.30;99570.00;1750572;81;25970;-79
2022/09/14 08:19:02;;;;;;;17.32;11.90;;;;;;;17.28;93.59;99570.37;1739873;81;25264;-80
2022/09/14 08:21:30;;;;;;;15.83;11.57;;;;;;;17.46;93.92;99575.97;1723115;81;26934;-81
2022/09/14 08:23:58;;;;;;;20.43;12.23;;;;;;;17.57;92.85;99569.08;1719007;81;25869;-83
2022/09/14 08:26:26;;;;;;;17.20;11.50;;;;;;;17.64;92.09;99581.86;1728233;82;25762;-77
2022/09/14 08:28:54;;;;;;;18.48;11.65;;;;;;;17.76;92.17;99580.34;1717682;82;25842;-80
2022/09/14 08:31:24;;;;;;;19.00;12.98;;;;;;;17.84;92.17;99572.27;1724047;82;25878;-78
2022/09/14 08:33:55;;;;;;;19.07;12.20;;;;;;;17.88;91.65;99574.77;1753182;81;27548;-78
2022/09/14 08:36:23;;;;;;;15.63;11.50;;;;;;;17.92;91.10;99569.89;1757121;80;25316;-78
2022/09/14 08:38:50;;;;;;;18.70;12.10;;;;;;;17.97;90.85;99569.13;1755970;80;25824;-80
2022/09/14 08:41:46;;;;;;;20.85;12.15;;;;;;;18.01;90.53;99568.88;1737218;81;25789;-80
2022/09/14 08:44:29;;;;;;;17.92;12.65;;;;;;;18.03;89.89;99575.67;1746452;81;25923;-80
2022/09/14 08:47:18;;;;;;;13.72;10.95;;;;;;;18.00;88.99;99569.44;1735839;81;27703;-78
2022/09/14 08:49:56;;;;;;;16.05;11.12;;;;;;;17.96;88.76;99566.98;1737153;80;26045;-80
2022/09/14 08:52:39;;;;;;;18.55;10.95;;;;;;;17.89;88.00;99565.55;1738775;81;25563;-79
2022/09/14 08:55:40;;;;;;;17.12;10.35;;;;;;;17.83;87.61;99567.41;1738553;81;25805;-78
2022/09/14 08:58:29;;;;;;;18.57;10.63;;;;;;;17.76;87.53;99560.56;1729478;81;25827;-78
2022/09/14 09:01:35;;;;;;;14.35;10.63;;;;;;;17.73;87.52;99562.71;1737027;80;27537;-79
2022/09/14 09:04:30;;;;;;;12.90;10.63;;;;;;;17.71;87.54;99563.51;1752693;81;26471;-78
2022/09/14 09:07:14;;;;;;;15.93;9.05;;;;;;;17.69;87.20;99554.83;1753701;81;25903;-79
2022/09/14 09:09:53;;;;;;;18.25;10.93;;;;;;;17.71;87.47;99562.69;1756224;80;25852;-78
2022/09/14 09:12:24;;;;;;;20.08;10.20;;;;;;;17.73;87.21;99561.09;1738278;81;25925;-78
2022/09/14 09:15:05;;;;;;;12.98;9.10;;;;;;;17.77;86.68;99561.64;1730698;82;27641;-79
2022/09/14 09:17:38;;;;;;;13.55;8.70;;;;;;;17.77;86.32;99554.88;1725955;82;25726;-79
2022/09/14 09:20:19;;;;;;;14.35;8.88;;;;;;;17.80;85.79;99552.19;1724457;82;25790;-79
2022/09/14 09:23:09;;;;;;;15.32;7.85;;;;;;;17.81;85.67;99556.02;1698832;83;25782;-79
2022/09/14 09:26:02;;;;;;;12.93;6.70;;;;;;;17.81;84.89;99554.66;1733662;82;25701;-79
2022/09/14 09:28:29;;;;;;;10.13;6.85;;;;;;;17.88;85.08;99549.03;1729250;82;27982;-79
2022/09/14 09:31:00;;;;;;;11.73;7.03;;;;;;;17.93;84.32;99549.05;1696932;82;25945;-79
2022/09/14 09:33:30;;;;;;;9.43;6.25;;;;;;;17.91;83.68;99549.31;1729042;81;25779;-79
2022/09/14 09:36:13;;;;;;;10.60;6.22;;;;;;;17.90;83.45;99554.44;1722739;81;25864;-79
2022/09/14 09:38:40;;;;;;;11.08;6.45;;;;;;;17.96;84.11;99552.61;1709043;83;26430;-80
2022/09/14 09:41:27;;;;;;;13.32;5.87;;;;;;;18.05;84.02;99552.41;1707112;83;27533;-80
2022/09/14 09:44:08;;;;;;;4.12;3.72;;;;;;;18.11;83.67;99548.09;1708494;83;25753;-79
2022/09/14 09:46:39;;;;;;;10.63;4.08;;;;;;;18.22;83.00;99547.64;1705799;83;25816;-79
2022/09/14 09:49:31;;;;;;;5.92;3.83;;;;;;;18.32;82.14;99554.47;1700922;83;26554;-79
2022/09/14 09:52:10;;;;;;;6.35;3.37;;;;;;;18.40;80.61;99546.66;1764392;76;25968;-77
2022/09/14 09:54:40;;;;;;;5.37;3.47;;;;;;;18.48;80.03;99547.54;1756024;80;27473;-80
2022/09/14 09:57:29;;;;;;;7.30;3.47;;;;;;;18.59;80.29;99542.98;1755256;79;25889;-80
2022/09/14 10:00:24;;;;;;;5.63;3.13;;;;;;;18.68;78.96;99546.83;1764141;76;26592;-77
2022/09/14 10:02:52;;;;;;;6.05;3.47;;;;;;;18.77;79.19;99547.13;1748847;81;25803;-77
2022/09/14 10:05:27;;;;;;;7.97;3.50;;;;;;;18.90;79.07;99545.29;1751335;81;25883;-77
2022/09/14 10:08:01;;;;;;;7.15;3.42;;;;;;;19.06;79.39;99551.84;1752062;81;27453;-78
2022/09/14 10:10:41;;;;;;;5.33;3.22;;;;;;;19.25;78.87;99547.55;1756622;80;25842;-78
2022/09/14 10:13:35;;;;;;;8.20;2.83;;;;;;;19.42;78.86;99551.97;1764486;81;25811;-78
2022/09/14 10:16:17;;;;;;;7.40;2.95;;;;;;;19.49;77.63;99556.58;1732351;81;25887;-77
2022/09/14 10:18:49;;;;;;;5.37;2.52;;;;;;;19.44;76.69;99566.88;1756669;80;25881;-81
2022/09/14 10:21:22;;;;;;;4.58;2.50;;;;;;;19.42;76.12;99562.83;1744878;81;28337;-79
2022/09/14 10:24:03;;;;;;;5.45;2.37;;;;;;;19.35;75.70;99566.34;1749113;78;25840;-79
2022/09/14 10:26:35;;;;;;;5.60;2.17;;;;;;;19.29;75.83;99564.67;1751453;78;25792;-79
2022/09/14 10:29:40;;;;;;;3.70;2.30;;;;;;;19.24;75.23;99569.55;1741728;81;26578;-78
2022/09/14 10:32:18;;;;;;;5.17;1.92;;;;;;;19.16;74.19;99575.50;1744175;81;26086;-80
2022/09/14 10:34:44;;;;;;;4.47;2.27;;;;;;;19.11;74.24;99575.48;1741073;80;27470;-79
2022/09/14 10:37:20;;;;;;;7.40;2.55;;;;;;;19.11;73.83;99574.95;1744857;81;25954;-79
2022/09/14 10:40:07;;;;;;;3.17;2.02;;;;;;;19.08;73.56;99573.28;1751099;81;25388;-80
2022/09/14 10:43:00;;;;;;;6.03;2.45;;;;;;;19.06;73.11;99570.02;1673565;84;26548;-81
2022/09/14 10:45:51;;;;;;;3.35;1.80;;;;;;;19.03;73.12;99578.72;1730534;81;25740;-79
2022/09/14 10:48:46;;;;;;;2.45;1.77;;;;;;;18.99;72.81;99577.62;1761819;80;27450;-80
2022/09/14 10:51:40;;;;;;;4.93;1.93;;;;;;;18.98;72.68;99570.55;1734321;81;43951;-81
2022/09/14 10:54:39;;;;;;;4.45;1.77;;;;;;;19.07;70.68;99568.42;1755606;81;26464;-81
2022/09/14 10:57:20;;;;;;;3.10;1.77;;;;;;;18.99;71.70;99566.77;1742750;80;25856;-79
2022/09/14 10:59:54;;;;;;;4.92;2.08;;;;;;;19.04;72.17;99568.94;1771148;76;26824;-79
2022/09/14 11:03:04;;;;;;;2.47;1.82;;;;;;;19.17;73.41;99566.26;1724769;81;27458;-78
2022/09/14 11:06:10;;;;;;;4.80;1.83;;;;;;;19.27;73.45;99568.99;1687067;84;26333;-78
2022/09/14 11:08:45;;;;;;;4.90;1.50;;;;;;;19.33;71.98;99567.95;1715346;82;25822;-77
2022/09/14 11:11:38;;;;;;;5.60;1.80;;;;;;;19.36;71.59;99564.70;1727534;82;26021;-77
2022/09/14 11:14:22;;;;;;;3.35;1.60;;;;;;;19.42;71.71;99559.55;1737658;81;25729;-76
2022/09/14 11:17:43;;;;;;;6.10;1.70;;;;;;;19.46;71.01;99563.36;1727695;82;28249;-79
2022/09/14 11:20:28;;;;;;;;;;;;;;;19.46;70.28;99562.56;1713276;83;25747;-81
2022/09/14 11:23:08;;;;;;;2.85;1.37;;;;;;;19.39;69.98;99560.11;1719728;82;25965;-79
2022/09/14 11:25:53;;;;;;;3.60;1.72;;;;;;;19.40;70.90;99559.01;1719228;82;25905;-78
2022/09/14 11:28:33;;;;;;;4.12;1.80;;;;;;;19.42;70.66;99555.48;1717382;82;25859;-79
2022/09/14 11:31:14;;;;;;;5.17;2.12;;;;;;;19.49;70.98;99556.58;1695300;82;27463;-77
2022/09/14 11:34:09;;;;;;;5.72;2.00;;;;;;;19.56;70.86;99557.14;1706444;82;34852;-78
2022/09/14 11:36:43;;;;;;;5.15;1.90;;;;;;;19.64;70.81;99557.41;1682140;84;25876;-77
2022/09/14 11:39:21;;;;;;;3.30;1.80;;;;;;;19.73;70.01;99554.97;1730520;81;25909;-78
2022/09/14 11:42:02;;;;;;;2.87;1.50;;;;;;;19.75;69.13;99552.80;1714930;81;25867;-79
2022/09/14 11:44:35;;;;;;;4.60;1.40;;;;;;;19.68;67.94;99546.81;1694604;84;28289;-78
2022/09/14 11:47:16;;;;;;;2.90;1.62;;;;;;;19.62;67.95;99545.19;1692873;84;26150;-79
2022/09/14 11:50:09;;;;;;;4.00;1.85;;;;;;;19.63;67.45;99544.11;1695709;84;25773;-79
2022/09/14 11:52:36;;;;;;;3.33;1.90;;;;;;;19.66;68.08;99540.30;1716178;82;26579;-77
2022/09/14 11:55:10;;;;;;;3.35;2.35;;;;;;;19.70;68.24;99537.84;1733358;81;25793;-88